Time;durP1;ratioP1;P1;durP2;ratioP2;P2;SDS_P1;SDS_P2;PMS_P1;PMS_P2;Temp;Humidity;BMP_temperature;BMP_pressure;BME280_temperature;BME280_humidity;BME280_pressure;Samples;Min_cycle;Max_cycle;Signal;HPM_P1;HPM_P2
2022/07/15 00:01:33;;;;;;;11.13;1.70;;;;;;;;;;5075326;28;20192;-80
2022/07/15 00:04:02;;;;;;;6.03;0.93;;;;;;;;;;5075202;28;20238;-80
2022/07/15 00:06:30;;;;;;;0.50;0.50;;;;;;;;;;5092556;28;20223;-79
2022/07/15 00:08:59;;;;;;;0.67;0.43;;;;;;;;;;5093604;28;20206;-80
2022/07/15 00:11:27;;;;;;;1.37;0.97;;;;;;;;;;5079194;28;20224;-81
2022/07/15 00:13:56;;;;;;;0.40;0.40;;;;;;;;;;5075635;28;20221;-80
2022/07/15 00:16:31;;;;;;;4.80;0.73;;;;;;;;;;5093048;28;20195;-80
2022/07/15 00:19:00;;;;;;;1.17;1.17;;;;;;;;;;5072159;28;20205;-81
2022/07/15 00:21:29;;;;;;;0.50;0.50;;;;;;;;;;5091177;28;20211;-80
2022/07/15 00:23:58;;;;;;;2.23;0.80;;;;;;;;;;5093152;28;20204;-80
2022/07/15 00:26:27;;;;;;;0.40;0.40;;;;;;;;;;5075170;28;20200;-80
2022/07/15 00:29:01;;;;;;;0.40;0.40;;;;;;;;;;5075272;28;20209;-81
2022/07/15 00:31:31;;;;;;;2.17;1.50;;;;;;;;;;5090542;28;20225;-82
2022/07/15 00:34:00;;;;;;;2.37;1.33;;;;;;;;;;5081876;28;20200;-81
2022/07/15 00:36:28;;;;;;;0.83;0.83;;;;;;;;;;5074892;28;20209;-80
2022/07/15 00:38:57;;;;;;;0.67;0.67;;;;;;;;;;5093185;28;20206;-80
2022/07/15 00:41:25;;;;;;;0.40;0.40;;;;;;;;;;5075012;28;20201;-80
2022/07/15 00:43:54;;;;;;;0.43;0.43;;;;;;;;;;5061161;28;20250;-80
2022/07/15 00:46:23;;;;;;;0.40;0.40;;;;;;;;;;5074857;28;20225;-80
2022/07/15 00:48:53;;;;;;;0.50;0.50;;;;;;;;;;5069692;28;20219;-80
2022/07/15 00:51:21;;;;;;;0.67;0.67;;;;;;;;;;5080178;28;20218;-80
2022/07/15 00:53:50;;;;;;;0.67;0.67;;;;;;;;;;5094041;28;20207;-78
2022/07/15 00:56:19;;;;;;;0.67;0.67;;;;;;;;;;5096302;28;20288;-79
2022/07/15 00:58:49;;;;;;;0.40;0.40;;;;;;;;;;5096353;28;20249;-78
2022/07/15 01:01:20;;;;;;;0.80;0.80;;;;;;;;;;5095666;28;20193;-81
2022/07/15 01:03:49;;;;;;;0.50;0.50;;;;;;;;;;5078523;28;20227;-80
2022/07/15 01:06:19;;;;;;;1.33;1.30;;;;;;;;;;5078173;28;20188;-80
2022/07/15 01:08:47;;;;;;;0.60;0.60;;;;;;;;;;5096262;28;20262;-80
2022/07/15 01:11:16;;;;;;;0.70;0.70;;;;;;;;;;5091242;28;20206;-80
2022/07/15 01:13:44;;;;;;;1.53;0.90;;;;;;;;;;5074744;28;20209;-80
2022/07/15 01:16:13;;;;;;;0.93;0.93;;;;;;;;;;5090184;28;20193;-80
2022/07/15 01:18:41;;;;;;;0.40;0.40;;;;;;;;;;5084875;28;20286;-80
2022/07/15 01:21:11;;;;;;;0.80;0.80;;;;;;;;;;5078226;28;20197;-80
2022/07/15 01:23:42;;;;;;;0.43;0.43;;;;;;;;;;5078242;28;20220;-80
2022/07/15 01:26:11;;;;;;;0.40;0.40;;;;;;;;;;5078339;28;20265;-80
2022/07/15 01:28:40;;;;;;;0.40;0.40;;;;;;;;;;5096364;28;20212;-80
2022/07/15 01:31:08;;;;;;;1.50;1.03;;;;;;;;;;5095047;28;20211;-80
2022/07/15 01:33:38;;;;;;;0.50;0.50;;;;;;;;;;5077712;28;20197;-80
2022/07/15 01:36:07;;;;;;;0.37;0.37;;;;;;;;;;5095675;28;20223;-80
2022/07/15 01:38:37;;;;;;;11.60;2.83;;;;;;;;;;5091027;28;20201;-80
2022/07/15 01:41:16;;;;;;;0.50;0.50;;;;;;;;;;5077754;28;20290;-80
2022/07/15 01:43:44;;;;;;;0.43;0.43;;;;;;;;;;5095456;28;20216;-80
2022/07/15 01:46:13;;;;;;;0.40;0.40;;;;;;;;;;5094127;28;20233;-80
2022/07/15 01:51:36;;;;;;;0.50;0.50;;;;;;;;;;5053941;28;20219;-81
2022/07/15 01:54:06;;;;;;;0.40;0.40;;;;;;;;;;5081328;28;20295;-80
2022/07/15 01:56:36;;;;;;;0.40;0.40;;;;;;;;;;5095191;28;20207;-81
2022/07/15 01:59:04;;;;;;;0.40;0.40;;;;;;;;;;5077313;28;20215;-80
2022/07/15 02:01:33;;;;;;;0.47;0.47;;;;;;;;;;5077056;28;20222;-80
2022/07/15 02:04:02;;;;;;;0.30;0.30;;;;;;;;;;5063464;28;20201;-80
2022/07/15 02:06:31;;;;;;;0.40;0.40;;;;;;;;;;5088358;28;20202;-81
2022/07/15 02:08:59;;;;;;;0.47;0.47;;;;;;;;;;5070502;28;20212;-79
2022/07/15 02:11:29;;;;;;;0.63;0.63;;;;;;;;;;5077056;28;20208;-80
2022/07/15 02:13:59;;;;;;;0.40;0.40;;;;;;;;;;5086421;28;20218;-80
2022/07/15 02:16:27;;;;;;;0.40;0.40;;;;;;;;;;5065630;28;20208;-80
2022/07/15 02:18:57;;;;;;;0.40;0.40;;;;;;;;;;5086019;28;20214;-80
2022/07/15 02:21:26;;;;;;;1.23;1.23;;;;;;;;;;5073494;28;20193;-80
2022/07/15 02:23:54;;;;;;;0.47;0.47;;;;;;;;;;5077062;28;20225;-81
2022/07/15 02:26:23;;;;;;;0.40;0.40;;;;;;;;;;5076882;28;20207;-80
2022/07/15 02:28:53;;;;;;;0.40;0.40;;;;;;;;;;5094728;28;20211;-81
2022/07/15 02:31:21;;;;;;;0.40;0.40;;;;;;;;;;5080139;28;20218;-80
2022/07/15 02:33:50;;;;;;;0.40;0.40;;;;;;;;;;5094445;28;20294;-80
2022/07/15 02:36:18;;;;;;;0.30;0.30;;;;;;;;;;5094396;28;20223;-81
2022/07/15 02:38:47;;;;;;;0.40;0.40;;;;;;;;;;5093050;28;20194;-80
2022/07/15 02:41:15;;;;;;;0.90;0.90;;;;;;;;;;5094334;28;20207;-80
2022/07/15 02:43:44;;;;;;;0.40;0.40;;;;;;;;;;5063638;28;20306;-80
2022/07/15 02:46:14;;;;;;;0.40;0.40;;;;;;;;;;5075836;28;20232;-80
2022/07/15 02:48:43;;;;;;;0.50;0.50;;;;;;;;;;5076655;28;20271;-81
2022/07/15 02:51:11;;;;;;;0.40;0.40;;;;;;;;;;5094173;28;20209;-80
2022/07/15 02:53:40;;;;;;;0.40;0.40;;;;;;;;;;5076424;28;20208;-81
2022/07/15 02:56:09;;;;;;;0.40;0.40;;;;;;;;;;5063020;28;20233;-81
2022/07/15 02:58:38;;;;;;;0.40;0.40;;;;;;;;;;5094082;28;20219;-81
2022/07/15 03:01:06;;;;;;;0.40;0.40;;;;;;;;;;5076243;28;20270;-80
2022/07/15 03:03:36;;;;;;;0.40;0.40;;;;;;;;;;5076092;28;20201;-80
2022/07/15 03:06:04;;;;;;;0.40;0.40;;;;;;;;;;5076477;28;20193;-80
2022/07/15 03:08:33;;;;;;;0.30;0.30;;;;;;;;;;5075760;28;20254;-80
2022/07/15 03:11:01;;;;;;;0.40;0.40;;;;;;;;;;5075910;28;20295;-80
2022/07/15 03:13:29;;;;;;;0.40;0.40;;;;;;;;;;5093047;28;20228;-80
2022/07/15 03:15:58;;;;;;;0.50;0.50;;;;;;;;;;5075466;28;20201;-80
2022/07/15 03:18:26;;;;;;;0.40;0.40;;;;;;;;;;5093704;28;20201;-81
2022/07/15 03:20:56;;;;;;;0.40;0.40;;;;;;;;;;5076060;28;20200;-80
2022/07/15 03:23:25;;;;;;;0.40;0.40;;;;;;;;;;5093579;28;20200;-80
2022/07/15 03:25:53;;;;;;;0.40;0.40;;;;;;;;;;5075603;28;20201;-80
2022/07/15 03:28:21;;;;;;;0.40;0.40;;;;;;;;;;5075620;28;20284;-80
2022/07/15 03:30:50;;;;;;;0.40;0.40;;;;;;;;;;5093685;28;20197;-80
2022/07/15 03:33:18;;;;;;;0.30;0.30;;;;;;;;;;5093290;28;20223;-80
2022/07/15 03:35:47;;;;;;;0.40;0.40;;;;;;;;;;5076159;28;20205;-80
2022/07/15 03:38:17;;;;;;;0.40;0.40;;;;;;;;;;5093327;28;20207;-80
2022/07/15 03:40:45;;;;;;;0.40;0.40;;;;;;;;;;5069142;28;20211;-80
2022/07/15 03:43:13;;;;;;;7.33;1.47;;;;;;;;;;5086347;28;20258;-80
2022/07/15 03:45:42;;;;;;;0.40;0.40;;;;;;;;;;5072133;28;20321;-81
2022/07/15 03:48:10;;;;;;;0.40;0.40;;;;;;;;;;5084117;28;20209;-81
2022/07/15 03:50:39;;;;;;;0.40;0.40;;;;;;;;;;5093252;28;20218;-81
2022/07/15 03:53:07;;;;;;;0.40;0.40;;;;;;;;;;5075289;28;20216;-81
2022/07/15 03:55:37;;;;;;;0.40;0.40;;;;;;;;;;5093365;28;20211;-81
2022/07/15 03:58:06;;;;;;;0.40;0.40;;;;;;;;;;5075408;28;20205;-81
2022/07/15 04:00:34;;;;;;;0.40;0.40;;;;;;;;;;5075443;28;20208;-81
2022/07/15 04:03:03;;;;;;;0.40;0.40;;;;;;;;;;5093547;28;20207;-81
2022/07/15 04:05:31;;;;;;;0.40;0.40;;;;;;;;;;5075598;28;20204;-81
2022/07/15 04:07:59;;;;;;;0.93;0.50;;;;;;;;;;5075259;28;20204;-81
2022/07/15 04:10:28;;;;;;;0.50;0.50;;;;;;;;;;5075570;28;20199;-81
2022/07/15 04:12:58;;;;;;;0.40;0.40;;;;;;;;;;5093049;28;20212;-81
2022/07/15 04:15:26;;;;;;;0.40;0.40;;;;;;;;;;5093289;28;20215;-80
2022/07/15 04:17:56;;;;;;;0.40;0.40;;;;;;;;;;5075342;28;20282;-81
2022/07/15 04:20:25;;;;;;;0.50;0.50;;;;;;;;;;5075532;28;20210;-81
2022/07/15 04:22:53;;;;;;;0.40;0.40;;;;;;;;;;5075284;28;20210;-81
2022/07/15 04:25:22;;;;;;;0.40;0.40;;;;;;;;;;5075375;28;20212;-81
2022/07/15 04:27:51;;;;;;;0.50;0.50;;;;;;;;;;5077092;28;20204;-81
2022/07/15 04:30:20;;;;;;;0.40;0.40;;;;;;;;;;5079208;28;20204;-81
2022/07/15 04:32:49;;;;;;;0.40;0.40;;;;;;;;;;5096819;28;20213;-81
2022/07/15 04:35:17;;;;;;;0.40;0.40;;;;;;;;;;5078838;28;20205;-80
2022/07/15 04:37:46;;;;;;;2.43;0.97;;;;;;;;;;5096004;28;20204;-80
2022/07/15 04:40:14;;;;;;;0.40;0.40;;;;;;;;;;5079124;28;20218;-81
2022/07/15 04:42:43;;;;;;;0.40;0.40;;;;;;;;;;5079122;28;20204;-80
2022/07/15 04:45:11;;;;;;;0.40;0.40;;;;;;;;;;5078840;28;20228;-81
2022/07/15 04:47:41;;;;;;;0.40;0.40;;;;;;;;;;5079008;28;20205;-80
2022/07/15 04:52:52;;;;;;;0.40;0.40;;;;;;;;;;5057486;28;20204;-81
2022/07/15 04:55:21;;;;;;;0.40;0.40;;;;;;;;;;5073826;28;20217;-81
2022/07/15 04:57:49;;;;;;;0.43;0.43;;;;;;;;;;5089615;28;20243;-81
2022/07/15 05:00:18;;;;;;;0.40;0.40;;;;;;;;;;5064606;28;20225;-81
2022/07/15 05:02:47;;;;;;;0.40;0.40;;;;;;;;;;5076595;28;20196;-81
2022/07/15 05:05:16;;;;;;;0.40;0.40;;;;;;;;;;5064965;28;20214;-81
2022/07/15 05:07:45;;;;;;;0.27;0.27;;;;;;;;;;5079182;28;20196;-81
2022/07/15 05:10:13;;;;;;;0.40;0.40;;;;;;;;;;5072075;28;20211;-81
2022/07/15 05:12:42;;;;;;;0.40;0.40;;;;;;;;;;5075011;28;20211;-81
2022/07/15 05:15:11;;;;;;;0.40;0.40;;;;;;;;;;5073897;28;20209;-81
2022/07/15 05:17:40;;;;;;;0.30;0.30;;;;;;;;;;5081939;28;20200;-81
2022/07/15 05:20:11;;;;;;;0.30;0.30;;;;;;;;;;5078321;28;20204;-81
2022/07/15 05:22:39;;;;;;;0.40;0.40;;;;;;;;;;5095420;28;20205;-81
2022/07/15 05:25:08;;;;;;;0.30;0.30;;;;;;;;;;5074304;28;20190;-81
2022/07/15 05:27:37;;;;;;;0.30;0.30;;;;;;;;;;5095904;28;20205;-81
2022/07/15 05:30:05;;;;;;;0.40;0.40;;;;;;;;;;5076566;28;20231;-81
2022/07/15 05:32:34;;;;;;;0.40;0.40;;;;;;;;;;5079178;28;20205;-81
2022/07/15 05:35:02;;;;;;;0.30;0.30;;;;;;;;;;5076249;28;20225;-81
2022/07/15 05:37:32;;;;;;;0.60;0.60;;;;;;;;;;5084705;28;20202;-81
2022/07/15 05:40:00;;;;;;;0.30;0.30;;;;;;;;;;5082893;28;20209;-81
2022/07/15 05:42:29;;;;;;;0.40;0.40;;;;;;;;;;5077864;28;20206;-82
2022/07/15 05:44:57;;;;;;;0.40;0.40;;;;;;;;;;5095124;28;20237;-81
2022/07/15 05:47:26;;;;;;;0.40;0.40;;;;;;;;;;5095707;28;20210;-81
2022/07/15 05:49:55;;;;;;;0.37;0.37;;;;;;;;;;5095245;28;20201;-82
2022/07/15 05:52:23;;;;;;;0.30;0.30;;;;;;;;;;5095323;28;20205;-82
2022/07/15 05:54:53;;;;;;;0.77;0.67;;;;;;;;;;5077483;28;20208;-80
2022/07/15 05:57:21;;;;;;;0.30;0.30;;;;;;;;;;5077745;28;20206;-81
2022/07/15 05:59:50;;;;;;;0.30;0.30;;;;;;;;;;5095657;28;20197;-81
2022/07/15 06:02:18;;;;;;;0.30;0.30;;;;;;;;;;5076967;28;20262;-81
2022/07/15 06:04:47;;;;;;;0.30;0.30;;;;;;;;;;5094934;28;20196;-81
2022/07/15 06:07:15;;;;;;;0.30;0.30;;;;;;;;;;5077309;28;20213;-81
2022/07/15 06:09:44;;;;;;;0.30;0.30;;;;;;;;;;5080356;28;20193;-81
2022/07/15 06:12:13;;;;;;;0.50;0.50;;;;;;;;;;5082601;28;20203;-81
2022/07/15 06:14:42;;;;;;;2.53;0.97;;;;;;;;;;5076453;28;20221;-80
2022/07/15 06:17:10;;;;;;;1.87;0.60;;;;;;;;;;5077493;28;20200;-81
2022/07/15 06:19:39;;;;;;;0.40;0.40;;;;;;;;;;5076594;28;20212;-81
2022/07/15 06:22:08;;;;;;;0.57;0.57;;;;;;;;;;5077483;28;20208;-80
2022/07/15 06:24:36;;;;;;;4.13;0.67;;;;;;;;;;5076888;28;20219;-81
2022/07/15 06:27:05;;;;;;;0.67;0.40;;;;;;;;;;5077351;28;20226;-80
2022/07/15 06:29:34;;;;;;;0.60;0.60;;;;;;;;;;5076793;28;20223;-80
2022/07/15 06:32:03;;;;;;;1.17;0.43;;;;;;;;;;5094798;28;20208;-82
2022/07/15 06:34:31;;;;;;;9.17;0.93;;;;;;;;;;5092996;28;20221;-81
2022/07/15 06:36:59;;;;;;;0.50;0.50;;;;;;;;;;5076522;28;20197;-82
2022/07/15 06:39:28;;;;;;;0.33;0.33;;;;;;;;;;5076475;28;20198;-82
2022/07/15 06:41:56;;;;;;;0.30;0.30;;;;;;;;;;5076635;28;20206;-80
2022/07/15 06:44:25;;;;;;;1.07;1.00;;;;;;;;;;5075762;28;20259;-80
2022/07/15 06:46:54;;;;;;;0.50;0.50;;;;;;;;;;5075951;28;20205;-80
2022/07/15 06:49:27;;;;;;;0.47;0.47;;;;;;;;;;5092709;28;20239;-80
2022/07/15 06:51:56;;;;;;;0.30;0.30;;;;;;;;;;5093755;28;20201;-80
2022/07/15 06:54:24;;;;;;;0.57;0.53;;;;;;;;;;5075927;28;20220;-80
2022/07/15 06:56:53;;;;;;;0.30;0.30;;;;;;;;;;5075918;28;20193;-80
2022/07/15 06:59:21;;;;;;;0.30;0.30;;;;;;;;;;5075605;28;20199;-81
2022/07/15 07:01:50;;;;;;;0.40;0.40;;;;;;;;;;5093683;28;20275;-81
2022/07/15 07:04:21;;;;;;;0.30;0.30;;;;;;;;;;5075932;28;20201;-79
2022/07/15 07:06:50;;;;;;;0.30;0.30;;;;;;;;;;5093935;28;20251;-81
2022/07/15 07:09:18;;;;;;;0.40;0.40;;;;;;;;;;5076039;28;20207;-79
2022/07/15 07:11:47;;;;;;;1.97;0.90;;;;;;;;;;5075975;28;20200;-79
2022/07/15 07:14:16;;;;;;;0.30;0.30;;;;;;;;;;5075787;28;20203;-80
2022/07/15 07:16:45;;;;;;;2.83;0.50;;;;;;;;;;5085947;28;20245;-79
2022/07/15 07:19:13;;;;;;;0.30;0.30;;;;;;;;;;5070575;28;20224;-79
2022/07/15 07:21:43;;;;;;;2.53;0.40;;;;;;;;;;5075673;28;20192;-80
2022/07/15 07:24:11;;;;;;;0.50;0.50;;;;;;;;;;5076083;28;20233;-80
2022/07/15 07:26:40;;;;;;;0.90;0.70;;;;;;;;;;5075889;28;20252;-80
2022/07/15 07:29:09;;;;;;;0.50;0.50;;;;;;;;;;5075530;28;20204;-80
2022/07/15 07:31:38;;;;;;;1.53;1.07;;;;;;;;;;5077904;28;20203;-82
2022/07/15 07:34:06;;;;;;;0.30;0.30;;;;;;;;;;5092710;28;20210;-81
2022/07/15 07:36:35;;;;;;;0.50;0.50;;;;;;;;;;5077977;28;20208;-82
2022/07/15 07:39:04;;;;;;;0.60;0.60;;;;;;;;;;5075616;28;20200;-82
2022/07/15 07:41:33;;;;;;;1.80;1.13;;;;;;;;;;5075478;28;20194;-82
2022/07/15 07:44:01;;;;;;;0.40;0.40;;;;;;;;;;5075401;28;20195;-81
2022/07/15 07:46:30;;;;;;;1.30;0.90;;;;;;;;;;5071964;28;20227;-81
2022/07/15 07:48:59;;;;;;;0.30;0.30;;;;;;;;;;5089207;28;20298;-81
2022/07/15 07:51:47;;;;;;;0.33;0.33;;;;;;;;;;5073162;28;20244;-81
2022/07/15 07:54:17;;;;;;;0.50;0.50;;;;;;;;;;5073210;28;20198;-81
2022/07/15 07:56:46;;;;;;;0.40;0.40;;;;;;;;;;5072212;28;20230;-81
2022/07/15 07:59:14;;;;;;;0.37;0.37;;;;;;;;;;5072740;28;20204;-81
2022/07/15 08:01:43;;;;;;;0.30;0.30;;;;;;;;;;5073823;28;20206;-81
2022/07/15 08:04:11;;;;;;;0.73;0.73;;;;;;;;;;5077138;28;20265;-81
2022/07/15 08:06:40;;;;;;;0.50;0.50;;;;;;;;;;5076106;28;20199;-81
2022/07/15 08:09:08;;;;;;;1.10;1.03;;;;;;;;;;5077004;28;20222;-81
2022/07/15 08:11:38;;;;;;;0.40;0.40;;;;;;;;;;5076252;28;20199;-81
2022/07/15 08:14:07;;;;;;;0.50;0.50;;;;;;;;;;5076262;28;20242;-81
2022/07/15 08:16:36;;;;;;;0.97;0.83;;;;;;;;;;5075862;28;20208;-81
2022/07/15 08:19:05;;;;;;;0.67;0.67;;;;;;;;;;5086258;28;20203;-80
2022/07/15 08:21:33;;;;;;;0.60;0.60;;;;;;;;;;5061893;28;20270;-81
2022/07/15 08:24:02;;;;;;;0.83;0.50;;;;;;;;;;5075995;28;20195;-81
2022/07/15 08:26:30;;;;;;;0.53;0.53;;;;;;;;;;5076496;28;20191;-81
2022/07/15 08:29:00;;;;;;;0.30;0.30;;;;;;;;;;5076741;28;20207;-81
2022/07/15 08:31:33;;;;;;;1.27;1.23;;;;;;;;;;5075494;28;20266;-81
2022/07/15 08:34:01;;;;;;;0.27;0.27;;;;;;;;;;5076604;28;20198;-81
2022/07/15 08:36:30;;;;;;;0.93;0.87;;;;;;;;;;5078288;28;20207;-81
2022/07/15 08:38:58;;;;;;;1.67;1.50;;;;;;;;;;5076519;28;20195;-81
2022/07/15 08:41:27;;;;;;;2.47;2.27;;;;;;;;;;5075322;28;20220;-81
2022/07/15 08:43:55;;;;;;;0.80;0.80;;;;;;;;;;5075434;28;20217;-81
2022/07/15 08:46:27;;;;;;;0.30;0.30;;;;;;;;;;5074948;28;20232;-81
2022/07/15 08:49:00;;;;;;;2.17;0.73;;;;;;;;;;5075253;28;20212;-81
2022/07/15 08:51:29;;;;;;;0.60;0.60;;;;;;;;;;5076423;28;20228;-82
2022/07/15 08:53:58;;;;;;;0.30;0.30;;;;;;;;;;5075016;28;20203;-80
2022/07/15 08:56:27;;;;;;;0.47;0.47;;;;;;;;;;5074869;28;20214;-82
2022/07/15 08:58:56;;;;;;;0.30;0.30;;;;;;;;;;5075178;28;20204;-79
2022/07/15 09:01:29;;;;;;;0.30;0.30;;;;;;;;;;5075209;28;20212;-80
2022/07/15 09:03:58;;;;;;;0.30;0.30;;;;;;;;;;5075316;28;20236;-80
2022/07/15 09:06:34;;;;;;;0.43;0.43;;;;;;;;;;5074726;28;20203;-79
2022/07/15 09:09:17;;;;;;;0.67;0.67;;;;;;;;;;5074573;28;20217;-82
2022/07/15 09:11:53;;;;;;;1.70;0.67;;;;;;;;;;5074855;28;20208;-82
2022/07/15 09:14:31;;;;;;;3.37;0.90;;;;;;;;;;5074047;28;20199;-80
2022/07/15 09:17:20;;;;;;;6.00;2.00;;;;;;;;;;5074563;28;20209;-80
2022/07/15 09:20:00;;;;;;;0.40;0.40;;;;;;;;;;5074705;28;20245;-79
2022/07/15 09:22:30;;;;;;;0.63;0.63;;;;;;;;;;5074696;28;20217;-80
2022/07/15 09:25:06;;;;;;;0.93;0.90;;;;;;;;;;5074603;28;20212;-79
2022/07/15 09:27:35;;;;;;;0.97;0.87;;;;;;;;;;5074474;28;20280;-80
2022/07/15 09:36:03;;;;;;;0.40;0.40;;;;;;;;;;5074384;28;20219;-80
2022/07/15 09:38:50;;;;;;;0.50;0.50;;;;;;;;;;5090953;28;20206;-81
2022/07/15 09:41:26;;;;;;;1.30;1.03;;;;;;;;;;5074159;28;20199;-80
2022/07/15 09:43:56;;;;;;;0.50;0.50;;;;;;;;;;5061666;28;20214;-80
2022/07/15 09:46:25;;;;;;;0.67;0.67;;;;;;;;;;5077150;28;20230;-80
2022/07/15 09:48:54;;;;;;;0.40;0.40;;;;;;;;;;5095299;28;20279;-80
2022/07/15 09:51:24;;;;;;;0.93;0.60;;;;;;;;;;5095476;28;20215;-81
2022/07/15 09:53:53;;;;;;;0.50;0.50;;;;;;;;;;5077465;28;20212;-80
2022/07/15 09:56:29;;;;;;;0.53;0.53;;;;;;;;;;5077170;28;20251;-79
2022/07/15 09:58:58;;;;;;;2.27;0.80;;;;;;;;;;5095257;28;20197;-80
2022/07/15 10:01:26;;;;;;;0.50;0.50;;;;;;;;;;5077171;28;20199;-80
2022/07/15 10:03:55;;;;;;;1.17;0.93;;;;;;;;;;5077076;28;20200;-80
2022/07/15 10:06:27;;;;;;;0.40;0.40;;;;;;;;;;5095055;28;20195;-80
2022/07/15 10:08:55;;;;;;;0.37;0.37;;;;;;;;;;5095013;28;20207;-80
2022/07/15 10:11:24;;;;;;;0.77;0.77;;;;;;;;;;5077186;28;20212;-80
2022/07/15 10:14:07;;;;;;;1.23;1.00;;;;;;;;;;5077191;28;20206;-80
2022/07/15 10:16:43;;;;;;;0.80;0.80;;;;;;;;;;5076748;28;20220;-81
2022/07/15 10:19:24;;;;;;;0.87;0.70;;;;;;;;;;5076970;28;20206;-80
2022/07/15 10:21:58;;;;;;;3.57;1.17;;;;;;;;;;5094518;28;20279;-81
2022/07/15 10:24:34;;;;;;;1.30;1.00;;;;;;;;;;5075916;28;20202;-81
2022/07/15 10:27:08;;;;;;;0.60;0.60;;;;;;;;;;5076452;28;20222;-81
2022/07/15 10:29:37;;;;;;;4.23;0.83;;;;;;;;;;5076916;28;20208;-81
2022/07/15 10:32:05;;;;;;;0.50;0.50;;;;;;;;;;5076681;28;20203;-81
2022/07/15 10:34:35;;;;;;;0.50;0.40;;;;;;;;;;5076679;28;20229;-81
2022/07/15 10:37:10;;;;;;;0.57;0.57;;;;;;;;;;5076390;28;20206;-81
2022/07/15 10:39:57;;;;;;;0.50;0.50;;;;;;;;;;5076528;28;20204;-81
2022/07/15 10:42:26;;;;;;;0.57;0.57;;;;;;;;;;5076263;28;20257;-81
2022/07/15 10:45:05;;;;;;;0.77;0.60;;;;;;;;;;5093964;28;20314;-81
2022/07/15 10:47:34;;;;;;;0.60;0.60;;;;;;;;;;5076136;28;20203;-81
2022/07/15 10:50:36;;;;;;;0.50;0.50;;;;;;;;;;5094260;28;20211;-82
2022/07/15 10:53:19;;;;;;;0.60;0.60;;;;;;;;;;5065232;28;20205;-81
2022/07/15 10:55:47;;;;;;;2.30;1.87;;;;;;;;;;5076258;28;20195;-81
2022/07/15 10:58:17;;;;;;;0.50;0.50;;;;;;;;;;5076082;28;20228;-81
2022/07/15 11:00:47;;;;;;;0.80;0.80;;;;;;;;;;5093996;28;20193;-81
2022/07/15 11:03:17;;;;;;;0.80;0.50;;;;;;;;;;5075996;28;20196;-81
2022/07/15 11:06:02;;;;;;;0.50;0.50;;;;;;;;;;5076194;28;20230;-81
2022/07/15 11:08:49;;;;;;;1.40;1.30;;;;;;;;;;5075530;28;20198;-82
2022/07/15 11:11:36;;;;;;;0.70;0.70;;;;;;;;;;5093984;28;20223;-81
2022/07/15 11:14:25;;;;;;;0.60;0.60;;;;;;;;;;5076701;28;20189;-81
2022/07/15 11:16:58;;;;;;;1.13;1.03;;;;;;;;;;5075633;28;20224;-82
2022/07/15 11:19:29;;;;;;;2.10;0.90;;;;;;;;;;5061605;28;20202;-81
2022/07/15 11:21:58;;;;;;;0.67;0.50;;;;;;;;;;5093803;28;20301;-81
2022/07/15 11:24:28;;;;;;;0.50;0.50;;;;;;;;;;5093737;28;20220;-81
2022/07/15 11:26:56;;;;;;;0.93;0.73;;;;;;;;;;5075662;28;20193;-81
2022/07/15 11:29:24;;;;;;;0.67;0.60;;;;;;;;;;5093722;28;20197;-81
2022/07/15 11:31:53;;;;;;;0.40;0.40;;;;;;;;;;5075628;28;20200;-81
2022/07/15 11:34:23;;;;;;;1.23;0.70;;;;;;;;;;5075570;28;20228;-81
2022/07/15 11:37:01;;;;;;;1.43;1.10;;;;;;;;;;5075181;28;20205;-81
2022/07/15 11:39:30;;;;;;;0.50;0.50;;;;;;;;;;5075662;28;20204;-82
2022/07/15 11:44:46;;;;;;;0.60;0.60;;;;;;;;;;5075296;28;20260;-81
2022/07/15 11:47:19;;;;;;;1.63;1.00;;;;;;;;;;5093320;28;20193;-80
2022/07/15 11:49:59;;;;;;;0.77;0.77;;;;;;;;;;5093434;28;20238;-81
2022/07/15 11:52:27;;;;;;;1.03;1.00;;;;;;;;;;5075484;28;20204;-81
2022/07/15 11:54:56;;;;;;;1.60;1.17;;;;;;;;;;5075450;28;20199;-81
2022/07/15 11:57:25;;;;;;;4.27;1.40;;;;;;;;;;5075038;28;20206;-81
2022/07/15 11:59:55;;;;;;;1.73;1.10;;;;;;;;;;5075263;28;20294;-82
2022/07/15 12:02:25;;;;;;;2.33;1.43;;;;;;;;;;5075450;28;20203;-81
2022/07/15 12:05:02;;;;;;;2.93;1.43;;;;;;;;;;5075006;28;20201;-81
2022/07/15 12:07:40;;;;;;;1.00;1.00;;;;;;;;;;5093097;28;20200;-81
2022/07/15 12:10:09;;;;;;;0.83;0.60;;;;;;;;;;5075503;28;20197;-82
2022/07/15 12:12:43;;;;;;;2.53;1.13;;;;;;;;;;5075270;28;20202;-81
2022/07/15 12:15:12;;;;;;;2.57;1.60;;;;;;;;;;5075268;28;20212;-81
2022/07/15 12:17:42;;;;;;;0.90;0.90;;;;;;;;;;5092883;28;20218;-81
2022/07/15 12:20:12;;;;;;;3.27;1.17;;;;;;;;;;5075499;28;20247;-81
2022/07/15 12:23:02;;;;;;;4.10;1.53;;;;;;;;;;5075369;28;20200;-81
2022/07/15 12:25:30;;;;;;;1.33;1.33;;;;;;;;;;5093113;28;20211;-81
2022/07/15 12:27:59;;;;;;;7.40;1.13;;;;;;;;;;5092681;28;20221;-81
2022/07/15 12:30:32;;;;;;;10.90;1.83;;;;;;;;;;5075111;28;20208;-81
2022/07/15 12:33:19;;;;;;;3.33;1.60;;;;;;;;;;5074940;28;20217;-82
2022/07/15 12:35:49;;;;;;;6.20;1.50;;;;;;;;;;5074940;28;20429;-81
2022/07/15 12:38:26;;;;;;;3.77;2.10;;;;;;;;;;5075149;28;20302;-82
2022/07/15 12:40:55;;;;;;;4.43;2.30;;;;;;;;;;5074941;28;20204;-81
2022/07/15 12:43:43;;;;;;;3.07;1.70;;;;;;;;;;5074620;28;20600;-82
2022/07/15 12:46:12;;;;;;;1.57;1.43;;;;;;;;;;5074356;28;20231;-81
2022/07/15 12:48:44;;;;;;;1.60;1.50;;;;;;;;;;5075973;28;20196;-81
2022/07/15 12:51:14;;;;;;;3.77;1.60;;;;;;;;;;5071148;28;20205;-81
2022/07/15 12:53:43;;;;;;;4.37;1.97;;;;;;;;;;5056252;28;20257;-81
2022/07/15 12:56:26;;;;;;;1.57;1.47;;;;;;;;;;5096205;28;20225;-80
2022/07/15 12:59:34;;;;;;;1.50;1.37;;;;;;;;;;5077338;28;20213;-82
2022/07/15 13:02:03;;;;;;;3.57;2.03;;;;;;;;;;5071453;28;20225;-80
2022/07/15 13:04:31;;;;;;;1.03;1.00;;;;;;;;;;5078154;28;20287;-80
2022/07/15 13:07:01;;;;;;;2.83;1.77;;;;;;;;;;5078237;28;20207;-80
2022/07/15 13:09:30;;;;;;;2.10;1.57;;;;;;;;;;5078273;28;20200;-80
2022/07/15 13:11:59;;;;;;;4.10;1.43;;;;;;;;;;5078326;28;20218;-81
2022/07/15 13:14:28;;;;;;;1.73;1.60;;;;;;;;;;5077861;28;20211;-80
2022/07/15 13:16:56;;;;;;;3.70;2.00;;;;;;;;;;5078131;28;20204;-81
2022/07/15 13:19:25;;;;;;;2.87;2.47;;;;;;;;;;5064115;28;20225;-81
2022/07/15 13:21:53;;;;;;;2.03;1.47;;;;;;;;;;5078035;28;20203;-81
2022/07/15 13:24:23;;;;;;;3.03;2.20;;;;;;;;;;5077784;28;20201;-81
2022/07/15 13:26:52;;;;;;;1.20;0.90;;;;;;;;;;5077999;28;20202;-81
2022/07/15 13:29:20;;;;;;;2.00;1.90;;;;;;;;;;5077817;28;20215;-82
2022/07/15 13:31:49;;;;;;;2.17;1.33;;;;;;;;;;5077878;28;20209;-80
2022/07/15 13:34:17;;;;;;;3.13;1.50;;;;;;;;;;5095507;28;20231;-81
2022/07/15 13:36:46;;;;;;;1.57;1.47;;;;;;;;;;5077984;28;20195;-80
2022/07/15 13:39:14;;;;;;;2.20;2.00;;;;;;;;;;5077901;28;20235;-80
2022/07/15 13:41:48;;;;;;;2.37;1.37;;;;;;;;;;5078178;28;20195;-80
2022/07/15 13:44:16;;;;;;;1.27;1.17;;;;;;;;;;5077765;28;20200;-80
2022/07/15 13:46:45;;;;;;;1.97;1.73;;;;;;;;;;5065583;28;20210;-80
2022/07/15 13:49:13;;;;;;;2.43;1.50;;;;;;;;;;5076966;28;20255;-81
2022/07/15 13:51:41;;;;;;;2.50;1.80;;;;;;;;;;5077594;28;20250;-79
2022/07/15 13:54:12;;;;;;;3.13;1.80;;;;;;;;;;5077517;28;20211;-80
2022/07/15 13:56:41;;;;;;;2.97;2.30;;;;;;;;;;5077676;28;20211;-80
2022/07/15 13:59:11;;;;;;;4.63;1.60;;;;;;;;;;5077079;28;20224;-80
2022/07/15 14:01:39;;;;;;;2.87;1.20;;;;;;;;;;5077350;28;20237;-81
2022/07/15 14:04:08;;;;;;;2.07;1.50;;;;;;;;;;5077465;28;20205;-80
2022/07/15 14:06:36;;;;;;;1.93;1.77;;;;;;;;;;5077320;28;20203;-79
2022/07/15 14:09:05;;;;;;;1.50;1.07;;;;;;;;;;5063319;28;20201;-80
2022/07/15 14:11:33;;;;;;;0.53;0.53;;;;;;;;;;5077287;28;20311;-80
2022/07/15 14:14:02;;;;;;;1.47;1.37;;;;;;;;;;5076821;28;20215;-80
2022/07/15 14:16:32;;;;;;;1.63;1.50;;;;;;;;;;5062839;28;20202;-80
2022/07/15 14:19:00;;;;;;;1.40;1.30;;;;;;;;;;5076706;28;20222;-80
2022/07/15 14:21:29;;;;;;;2.87;1.87;;;;;;;;;;5076835;28;20199;-80
2022/07/15 14:23:57;;;;;;;2.33;1.10;;;;;;;;;;5076897;28;20206;-79
2022/07/15 14:26:27;;;;;;;3.73;2.27;;;;;;;;;;5076546;28;20236;-80
2022/07/15 14:28:56;;;;;;;2.23;1.10;;;;;;;;;;5095092;28;20207;-80
2022/07/15 14:31:25;;;;;;;3.57;2.07;;;;;;;;;;5076752;28;20199;-80
2022/07/15 14:33:55;;;;;;;8.00;1.73;;;;;;;;;;5076611;28;20192;-80
2022/07/15 14:36:23;;;;;;;5.47;1.63;;;;;;;;;;5076277;28;20211;-80
2022/07/15 14:38:51;;;;;;;2.73;1.40;;;;;;;;;;5076994;28;20227;-80
2022/07/15 14:41:20;;;;;;;4.00;2.13;;;;;;;;;;5076724;28;20257;-80
2022/07/15 14:43:48;;;;;;;5.70;2.03;;;;;;;;;;5094688;28;20225;-79
2022/07/15 14:46:21;;;;;;;4.53;2.53;;;;;;;;;;5075959;28;20238;-80
2022/07/15 14:48:50;;;;;;;2.90;1.10;;;;;;;;;;5094057;28;20211;-80
2022/07/15 14:51:20;;;;;;;2.80;1.47;;;;;;;;;;5073057;28;20208;-80
2022/07/15 14:53:49;;;;;;;2.63;1.47;;;;;;;;;;5071575;28;20211;-80
2022/07/15 14:56:17;;;;;;;1.57;1.47;;;;;;;;;;5076806;28;20217;-80
2022/07/15 14:58:46;;;;;;;5.97;2.40;;;;;;;;;;5076441;28;20213;-80
2022/07/15 15:01:14;;;;;;;2.50;1.27;;;;;;;;;;5076547;28;20234;-80
2022/07/15 15:03:43;;;;;;;0.77;0.77;;;;;;;;;;5076396;28;20200;-79
2022/07/15 15:06:11;;;;;;;4.40;1.50;;;;;;;;;;5075972;28;20212;-80
2022/07/15 15:08:47;;;;;;;0.77;0.77;;;;;;;;;;5076262;28;20291;-79
2022/07/15 15:11:15;;;;;;;2.10;1.60;;;;;;;;;;5075621;28;20296;-79
2022/07/15 15:13:43;;;;;;;1.43;1.33;;;;;;;;;;5075948;28;20203;-79
2022/07/15 15:16:12;;;;;;;5.73;1.97;;;;;;;;;;5075962;28;20237;-80